Time;durP1;ratioP1;P1;durP2;ratioP2;P2;SDS_P1;SDS_P2;PMS_P1;PMS_P2;Temp;Humidity;BMP_temperature;BMP_pressure;BME280_temperature;BME280_humidity;BME280_pressure;Samples;Min_cycle;Max_cycle;Signal;HPM_P1;HPM_P2
2021/08/08 00:02:24;;;;;;;2.20;1.10;;;;;;;16.77;nan;99755.03;5056452;28;24477;-76
2021/08/08 00:04:49;;;;;;;1.85;1.10;;;;;;;16.79;nan;99757.53;5058070;28;20033;-76
2021/08/08 00:07:16;;;;;;;3.58;1.30;;;;;;;16.75;nan;99759.75;5050386;28;20048;-76
2021/08/08 00:09:42;;;;;;;2.60;0.90;;;;;;;16.67;nan;99760.00;5041642;28;20090;-76
2021/08/08 00:12:08;;;;;;;1.27;0.90;;;;;;;16.69;nan;99757.94;5047007;28;20060;-76
2021/08/08 00:14:35;;;;;;;2.20;1.00;;;;;;;16.64;nan;99756.94;5057246;28;20033;-76
2021/08/08 00:17:01;;;;;;;1.83;1.08;;;;;;;16.59;nan;99762.06;5049140;28;20063;-76
2021/08/08 00:19:27;;;;;;;3.05;1.30;;;;;;;16.62;nan;99759.81;5060621;28;20036;-76
2021/08/08 00:21:53;;;;;;;1.70;1.00;;;;;;;16.59;nan;99760.25;5048440;28;20620;-76
2021/08/08 00:24:20;;;;;;;2.13;1.17;;;;;;;16.65;nan;99758.59;5047402;28;20044;-76
2021/08/08 00:26:46;;;;;;;1.30;0.82;;;;;;;16.52;nan;99764.78;5048608;28;20064;-76
2021/08/08 00:29:12;;;;;;;2.22;0.90;;;;;;;16.56;nan;99768.66;5049559;28;20086;-76
2021/08/08 00:31:38;;;;;;;2.33;1.00;;;;;;;16.54;nan;99776.03;5049054;28;20025;-75
2021/08/08 00:34:04;;;;;;;2.25;1.00;;;;;;;16.43;nan;99771.38;5059997;28;20037;-76
2021/08/08 00:36:33;;;;;;;3.28;1.20;;;;;;;16.44;nan;99786.34;5049741;28;20033;-76
2021/08/08 00:39:00;;;;;;;1.60;0.90;;;;;;;16.42;nan;99773.22;5048395;28;20029;-76
2021/08/08 00:41:26;;;;;;;1.52;0.80;;;;;;;16.44;nan;99779.16;5047127;28;20401;-75
2021/08/08 00:43:52;;;;;;;1.77;1.05;;;;;;;16.45;nan;99780.00;5049338;28;20041;-75
2021/08/08 00:46:19;;;;;;;1.73;0.90;;;;;;;16.49;nan;99782.03;5046948;28;20037;-75
2021/08/08 00:48:44;;;;;;;2.78;1.08;;;;;;;16.39;nan;99788.81;5050597;28;20171;-75
2021/08/08 00:51:10;;;;;;;3.28;1.10;;;;;;;16.37;nan;99789.00;5048119;28;20190;-75
2021/08/08 00:53:37;;;;;;;2.42;1.00;;;;;;;16.38;nan;99793.34;5049258;28;20041;-76
2021/08/08 00:56:03;;;;;;;2.83;0.90;;;;;;;16.29;nan;99784.72;5048944;28;20107;-76
2021/08/08 00:58:29;;;;;;;2.08;0.70;;;;;;;16.18;nan;99793.34;5047795;28;20124;-75
2021/08/08 01:01:06;;;;;;;1.85;0.80;;;;;;;16.17;nan;99794.38;5047444;28;20263;-76
2021/08/08 01:03:33;;;;;;;2.40;0.85;;;;;;;16.09;nan;99798.09;5049441;28;20025;-76
2021/08/08 01:06:10;;;;;;;1.08;0.60;;;;;;;16.05;nan;99790.69;5050647;28;20124;-75
2021/08/08 01:08:43;;;;;;;1.40;0.80;;;;;;;15.96;nan;99797.25;5056814;28;20045;-76
2021/08/08 01:11:10;;;;;;;3.45;0.80;;;;;;;15.99;nan;99799.50;5053715;28;20051;-75
2021/08/08 01:13:37;;;;;;;1.52;0.70;;;;;;;15.91;nan;99804.00;5065606;28;20503;-75
2021/08/08 01:16:05;;;;;;;1.02;0.70;;;;;;;15.85;nan;99807.50;5047654;28;20029;-76
2021/08/08 01:18:32;;;;;;;1.88;0.70;;;;;;;15.85;nan;99802.19;5047432;28;20865;-75
2021/08/08 01:20:59;;;;;;;3.67;0.88;;;;;;;15.85;nan;99804.00;5047522;28;20033;-75
2021/08/08 01:23:25;;;;;;;;;;;;;;;15.77;nan;99805.03;5049885;28;20056;-75
2021/08/08 01:25:51;;;;;;;1.98;0.88;;;;;;;15.76;nan;99800.75;5047609;28;19927;-75
2021/08/08 01:28:18;;;;;;;3.00;1.10;;;;;;;15.76;nan;99802.59;5051187;28;20037;-75
2021/08/08 01:30:44;;;;;;;2.83;0.80;;;;;;;15.70;nan;99807.69;5051202;28;20052;-75
2021/08/08 01:33:11;;;;;;;1.90;0.88;;;;;;;15.77;nan;99805.03;5054240;28;20037;-76
2021/08/08 01:35:37;;;;;;;3.60;0.90;;;;;;;15.73;nan;99801.16;5052625;28;20033;-76
2021/08/08 01:38:03;;;;;;;1.38;0.68;;;;;;;15.70;nan;99802.34;5051463;28;20064;-76
2021/08/08 01:41:12;;;;;;;3.00;0.82;;;;;;;15.73;nan;99797.66;5052218;28;20067;-75
2021/08/08 01:43:43;;;;;;;1.38;0.70;;;;;;;15.77;nan;99810.38;4973927;28;20034;-76
2021/08/08 01:46:11;;;;;;;1.77;0.80;;;;;;;15.78;nan;99800.50;4990118;28;20077;-76
2021/08/08 01:48:44;;;;;;;1.88;0.80;;;;;;;15.78;nan;99813.84;4990246;28;20042;-76
2021/08/08 01:51:13;;;;;;;2.15;0.77;;;;;;;15.72;nan;99812.81;4989566;28;20064;-75
2021/08/08 01:53:40;;;;;;;1.13;0.63;;;;;;;15.70;nan;99820.19;5051015;28;20040;-76
2021/08/08 01:56:06;;;;;;;3.10;0.80;;;;;;;15.71;nan;99816.53;5050485;28;20037;-75
2021/08/08 01:58:33;;;;;;;1.65;0.80;;;;;;;15.66;nan;99822.44;5050870;28;20033;-76
2021/08/08 02:00:59;;;;;;;1.63;0.70;;;;;;;15.56;nan;99827.31;5052401;28;20498;-75
2021/08/08 02:03:39;;;;;;;2.20;0.80;;;;;;;15.54;nan;99824.03;5050849;28;20237;-76
2021/08/08 02:06:07;;;;;;;2.38;0.93;;;;;;;15.50;nan;99826.28;5052135;28;20036;-75
2021/08/08 02:08:34;;;;;;;2.05;0.85;;;;;;;15.46;nan;99832.22;5057419;28;20044;-76
2021/08/08 02:11:01;;;;;;;1.10;0.50;;;;;;;15.43;nan;99830.75;5051416;28;20048;-75
2021/08/08 02:13:27;;;;;;;2.42;0.80;;;;;;;15.39;nan;99832.19;5055371;28;20036;-75
2021/08/08 02:15:53;;;;;;;2.58;0.80;;;;;;;15.37;nan;99828.06;5054405;28;20077;-76
2021/08/08 02:18:19;;;;;;;2.80;0.80;;;;;;;15.37;nan;99830.75;5051517;28;20069;-75
2021/08/08 02:20:46;;;;;;;1.65;0.75;;;;;;;15.38;nan;99829.72;5050122;28;20036;-76
2021/08/08 02:23:13;;;;;;;3.22;1.00;;;;;;;15.36;nan;99834.44;5050820;28;20070;-76
2021/08/08 02:25:39;;;;;;;2.60;1.00;;;;;;;15.33;nan;99832.19;5050834;28;20374;-76
2021/08/08 02:28:09;;;;;;;1.52;0.68;;;;;;;15.28;nan;99835.44;5049665;28;21130;-75
2021/08/08 02:30:36;;;;;;;1.88;0.75;;;;;;;15.30;nan;99838.69;5051435;28;20037;-75
2021/08/08 02:33:03;;;;;;;1.55;0.90;;;;;;;15.25;nan;99835.81;5058177;28;20078;-76
2021/08/08 02:35:32;;;;;;;1.65;0.77;;;;;;;15.20;nan;99838.25;5057833;28;20656;-75
2021/08/08 02:38:04;;;;;;;0.80;0.60;;;;;;;15.20;nan;99849.72;5050698;28;20033;-75
2021/08/08 02:40:31;;;;;;;4.28;0.85;;;;;;;15.21;nan;99845.25;5049385;28;20605;-75
2021/08/08 02:42:57;;;;;;;2.85;0.80;;;;;;;15.18;nan;99842.97;5051386;28;20128;-75
2021/08/08 02:45:23;;;;;;;1.90;0.88;;;;;;;15.18;nan;99850.94;5051569;28;20242;-76
2021/08/08 02:47:49;;;;;;;2.45;0.75;;;;;;;15.17;nan;99852.81;5052800;28;20029;-76
2021/08/08 02:50:14;;;;;;;2.80;0.90;;;;;;;15.10;nan;99848.47;5050878;28;20063;-76
2021/08/08 02:52:41;;;;;;;1.77;0.90;;;;;;;15.17;nan;99860.78;5051531;28;20470;-75
2021/08/08 02:55:10;;;;;;;2.63;0.80;;;;;;;15.17;nan;99865.28;5051533;28;20061;-76
2021/08/08 02:57:35;;;;;;;3.97;1.00;;;;;;;15.24;nan;99879.47;5051193;28;20044;-76
2021/08/08 03:00:00;;;;;;;2.03;0.80;;;;;;;15.22;nan;99886.81;5051480;28;20562;-75
2021/08/08 03:02:25;;;;;;;3.10;0.80;;;;;;;15.24;nan;99887.47;5050777;28;20041;-76
2021/08/08 03:04:51;;;;;;;2.05;1.05;;;;;;;15.19;nan;99881.91;5051486;28;20025;-76
2021/08/08 03:07:16;;;;;;;1.40;0.80;;;;;;;15.25;nan;99884.59;5052572;28;20033;-76
2021/08/08 03:09:41;;;;;;;2.45;0.90;;;;;;;15.24;nan;99885.59;5063992;28;20033;-76
2021/08/08 03:12:07;;;;;;;2.42;0.90;;;;;;;15.25;nan;99883.75;5050299;28;20393;-75
2021/08/08 03:14:32;;;;;;;3.50;1.00;;;;;;;15.24;nan;99880.28;5060237;28;20055;-76
2021/08/08 03:16:58;;;;;;;1.63;0.93;;;;;;;15.22;nan;99881.50;5051492;28;20108;-76
2021/08/08 03:19:23;;;;;;;1.50;0.90;;;;;;;15.24;nan;99890.94;5050801;28;20041;-76
2021/08/08 03:21:48;;;;;;;1.30;1.00;;;;;;;15.20;nan;99880.88;5051936;28;20462;-75
2021/08/08 03:24:13;;;;;;;1.83;0.80;;;;;;;15.22;nan;99892.97;5050545;28;20040;-76
2021/08/08 03:26:39;;;;;;;1.42;0.75;;;;;;;15.16;nan;99893.78;5050774;28;20508;-76
2021/08/08 03:29:04;;;;;;;2.20;0.85;;;;;;;15.22;nan;99902.81;5050513;28;20040;-76
2021/08/08 03:31:30;;;;;;;2.20;0.80;;;;;;;15.20;nan;99912.84;5050216;28;20051;-76
2021/08/08 03:33:56;;;;;;;1.65;0.80;;;;;;;15.20;nan;99910.16;5063880;28;20047;-76
2021/08/08 03:36:22;;;;;;;2.85;0.90;;;;;;;15.20;nan;99920.81;5050157;28;20053;-76
2021/08/08 03:38:48;;;;;;;3.38;0.90;;;;;;;15.19;nan;99919.19;5049035;28;20033;-76
2021/08/08 03:41:14;;;;;;;3.30;0.80;;;;;;;15.20;nan;99923.47;5049215;28;20426;-76
2021/08/08 03:43:39;;;;;;;2.42;0.82;;;;;;;15.21;nan;99928.63;5050441;28;20029;-76
2021/08/08 03:46:05;;;;;;;2.78;0.82;;;;;;;15.22;nan;99916.13;5050574;28;20444;-76
2021/08/08 03:48:30;;;;;;;2.97;1.00;;;;;;;15.18;nan;99926.38;5049506;28;20484;-76
2021/08/08 03:50:55;;;;;;;3.15;1.00;;;;;;;15.19;nan;99921.84;5050247;28;20097;-76
2021/08/08 03:53:21;;;;;;;2.22;0.90;;;;;;;15.17;nan;99929.22;5050118;28;20041;-76
2021/08/08 03:55:46;;;;;;;1.92;0.90;;;;;;;15.18;nan;99931.69;5048517;28;20525;-76
2021/08/08 03:58:11;;;;;;;2.50;1.00;;;;;;;15.19;nan;99946.63;5049333;28;20394;-76
2021/08/08 04:00:36;;;;;;;1.80;0.95;;;;;;;15.20;nan;99944.78;5050383;28;20033;-76
2021/08/08 04:03:02;;;;;;;1.58;0.88;;;;;;;15.20;nan;99947.47;5050228;28;20125;-76
2021/08/08 04:05:27;;;;;;;1.40;0.80;;;;;;;15.18;nan;99947.66;5049979;28;20029;-76
2021/08/08 04:07:52;;;;;;;2.10;1.00;;;;;;;15.14;nan;99950.91;5056608;28;20047;-76
2021/08/08 04:10:18;;;;;;;3.83;1.00;;;;;;;15.15;nan;99952.56;5060994;28;20029;-76
2021/08/08 04:12:43;;;;;;;1.53;0.70;;;;;;;15.19;nan;99959.13;5056869;28;20433;-75
2021/08/08 04:15:09;;;;;;;2.28;0.90;;;;;;;15.21;nan;99959.78;5059014;28;20037;-76
2021/08/08 04:17:34;;;;;;;1.92;1.10;;;;;;;15.21;nan;99957.09;5049841;28;20467;-75
2021/08/08 04:20:00;;;;;;;2.63;1.20;;;;;;;15.22;nan;99953.41;5049516;28;20121;-76
2021/08/08 04:22:25;;;;;;;3.20;1.35;;;;;;;15.14;nan;99951.75;5049045;28;20436;-76
2021/08/08 04:24:51;;;;;;;4.25;1.10;;;;;;;15.20;nan;99948.28;5049325;28;20033;-76
2021/08/08 04:27:16;;;;;;;2.50;1.17;;;;;;;15.19;nan;99961.81;5049072;28;20071;-76
2021/08/08 04:29:42;;;;;;;4.55;1.17;;;;;;;15.19;nan;99969.78;5049809;28;20045;-76
2021/08/08 04:32:08;;;;;;;2.78;1.08;;;;;;;15.18;nan;99968.97;5048500;28;20642;-76
2021/08/08 04:34:33;;;;;;;3.22;1.10;;;;;;;15.24;nan;99967.34;5060016;28;20037;-77
2021/08/08 04:36:59;;;;;;;3.97;1.20;;;;;;;15.24;nan;99962.03;5049582;28;20029;-76
2021/08/08 04:39:24;;;;;;;2.08;1.00;;;;;;;15.22;nan;99969.41;5049080;28;20493;-74
2021/08/08 04:41:52;;;;;;;1.70;0.82;;;;;;;15.19;nan;99962.63;5048045;28;20036;-75
2021/08/08 04:44:17;;;;;;;1.85;1.17;;;;;;;15.27;nan;99966.97;5049089;28;20071;-75
2021/08/08 04:46:43;;;;;;;5.03;0.95;;;;;;;15.26;nan;99968.00;5049485;28;20115;-75
2021/08/08 04:49:08;;;;;;;2.22;0.90;;;;;;;15.31;nan;99980.72;5050460;28;20411;-75
2021/08/08 04:51:33;;;;;;;3.05;1.10;;;;;;;15.31;nan;99970.88;5049880;28;20044;-75
2021/08/08 04:53:58;;;;;;;4.32;1.25;;;;;;;15.34;nan;99977.66;5049378;28;20033;-75
2021/08/08 04:56:24;;;;;;;1.40;0.90;;;;;;;15.34;nan;99983.81;5049032;28;20228;-75
2021/08/08 04:58:49;;;;;;;3.40;1.23;;;;;;;15.34;nan;99983.81;5049465;28;20260;-75
2021/08/08 05:01:14;;;;;;;3.35;0.90;;;;;;;15.35;nan;99980.13;5049557;28;20044;-75
2021/08/08 05:03:39;;;;;;;3.85;1.10;;;;;;;15.46;nan;99986.75;5047923;28;20043;-75
2021/08/08 05:06:06;;;;;;;4.30;1.20;;;;;;;15.55;nan;99982.09;5049172;28;20052;-74
2021/08/08 05:08:31;;;;;;;3.28;1.30;;;;;;;15.66;nan;99993.00;5050199;28;20033;-74
2021/08/08 05:10:56;;;;;;;2.58;1.10;;;;;;;15.68;nan;99998.13;5042289;28;20090;-74
2021/08/08 05:13:27;;;;;;;3.95;1.08;;;;;;;15.81;nan;100000.88;5029982;28;20386;-74
2021/08/08 05:15:52;;;;;;;2.33;1.10;;;;;;;15.97;nan;100001.53;5029665;28;20160;-76
2021/08/08 05:18:18;;;;;;;2.35;1.08;;;;;;;16.05;nan;100006.72;5028850;28;20128;-75
2021/08/08 05:20:43;;;;;;;2.10;0.98;;;;;;;16.09;nan;100014.13;5023614;28;20033;-75
2021/08/08 05:23:08;;;;;;;1.75;1.00;;;;;;;16.22;nan;100018.66;5049349;28;20520;-75
2021/08/08 05:25:34;;;;;;;2.63;1.00;;;;;;;16.19;nan;100013.75;5048772;28;20154;-75
2021/08/08 05:27:59;;;;;;;2.60;1.00;;;;;;;16.24;nan;100011.28;5048884;28;20033;-75
2021/08/08 05:30:24;;;;;;;2.42;1.30;;;;;;;16.33;nan;100018.09;5048264;28;20409;-75
2021/08/08 05:32:49;;;;;;;4.53;1.30;;;;;;;16.64;nan;100021.22;5053068;28;20043;-75
2021/08/08 05:35:15;;;;;;;3.88;1.20;;;;;;;16.65;nan;100015.66;5063140;28;20040;-74
2021/08/08 05:37:40;;;;;;;3.30;1.20;;;;;;;16.82;nan;100017.97;5049287;28;20044;-75
2021/08/08 05:40:07;;;;;;;2.63;1.17;;;;;;;17.06;nan;100021.84;5039574;28;20037;-75
2021/08/08 05:42:33;;;;;;;5.22;2.20;;;;;;;17.28;nan;100023.28;5063256;28;20037;-74
2021/08/08 05:44:59;;;;;;;2.53;0.88;;;;;;;17.41;nan;100023.25;5049145;28;20047;-76
2021/08/08 05:47:24;;;;;;;2.20;0.98;;;;;;;17.73;nan;100031.41;5051078;28;20404;-75
2021/08/08 05:49:50;;;;;;;2.15;1.00;;;;;;;18.01;nan;100031.09;5049542;28;20109;-74
2021/08/08 05:52:16;;;;;;;3.47;1.13;;;;;;;18.19;nan;100035.78;5048956;28;20029;-75
2021/08/08 05:54:42;;;;;;;1.90;0.88;;;;;;;18.26;nan;100025.03;5030448;28;20033;-76
2021/08/08 05:57:07;;;;;;;4.57;1.10;;;;;;;18.38;nan;100039.38;5049098;28;20298;-75
2021/08/08 05:59:32;;;;;;;2.00;0.88;;;;;;;18.73;nan;100046.97;5048976;28;20086;-75
2021/08/08 06:01:57;;;;;;;3.03;1.00;;;;;;;18.74;nan;100037.91;5049046;28;20115;-75
2021/08/08 06:04:23;;;;;;;4.97;1.15;;;;;;;18.91;nan;100048.13;5047885;28;20055;-74
2021/08/08 06:06:50;;;;;;;2.53;0.93;;;;;;;19.12;nan;100045.06;5049148;28;20033;-74
2021/08/08 06:09:15;;;;;;;4.60;1.00;;;;;;;19.33;nan;100043.84;5065704;28;20765;-75
2021/08/08 06:11:40;;;;;;;2.28;0.80;;;;;;;19.61;nan;100055.91;5054705;28;20033;-75
2021/08/08 06:14:06;;;;;;;2.50;0.80;;;;;;;19.99;nan;100057.59;5059340;28;20574;-75
2021/08/08 06:16:31;;;;;;;2.90;0.90;;;;;;;20.09;nan;100053.34;5059415;28;20033;-75
2021/08/08 06:18:56;;;;;;;3.13;1.00;;;;;;;20.47;nan;100060.25;5052504;28;20029;-75
2021/08/08 06:21:22;;;;;;;2.47;0.70;;;;;;;20.56;nan;100072.34;5052597;28;20123;-75
2021/08/08 06:23:47;;;;;;;2.15;0.90;;;;;;;20.70;nan;100072.16;5052687;28;20065;-75
2021/08/08 06:26:12;;;;;;;3.15;1.00;;;;;;;20.34;nan;100084.59;5052457;28;20033;-74
2021/08/08 06:28:37;;;;;;;1.80;0.80;;;;;;;19.95;nan;100078.69;5053713;28;20370;-75
2021/08/08 06:31:03;;;;;;;2.90;0.93;;;;;;;19.60;nan;100092.66;5053039;28;20041;-75
2021/08/08 06:33:28;;;;;;;5.80;1.10;;;;;;;19.15;nan;100094.72;5063287;28;20051;-74
2021/08/08 06:35:54;;;;;;;2.15;0.80;;;;;;;18.94;nan;100098.56;5053836;28;20374;-75
2021/08/08 06:38:19;;;;;;;2.57;0.90;;;;;;;18.67;nan;100099.53;5050428;28;20746;-74
2021/08/08 06:40:45;;;;;;;4.45;1.35;;;;;;;18.52;nan;100106.22;5053807;28;20041;-75
2021/08/08 06:43:11;;;;;;;3.92;1.10;;;;;;;19.00;nan;100100.41;5053607;28;20040;-75
2021/08/08 06:45:36;;;;;;;2.95;1.08;;;;;;;19.30;nan;100106.72;5054377;28;20165;-75
2021/08/08 06:48:01;;;;;;;3.33;1.00;;;;;;;19.19;nan;100110.13;5061224;28;20425;-75
2021/08/08 06:50:28;;;;;;;2.88;1.05;;;;;;;19.28;nan;100110.66;5052926;28;20167;-75
2021/08/08 06:52:53;;;;;;;4.68;1.20;;;;;;;19.39;nan;100109.16;5051789;28;20029;-75
2021/08/08 06:55:19;;;;;;;4.03;1.00;;;;;;;19.20;nan;100117.13;5053811;28;20048;-75
2021/08/08 06:57:44;;;;;;;;;;;;;;;19.19;nan;100112.81;5053374;28;20674;-75
2021/08/08 07:00:10;;;;;;;3.30;1.03;;;;;;;19.22;nan;100111.56;5051463;28;20377;-75
2021/08/08 07:02:35;;;;;;;4.78;1.20;;;;;;;19.15;nan;100110.78;5051620;28;20375;-73
2021/08/08 07:05:01;;;;;;;2.72;0.98;;;;;;;19.59;nan;100111.63;5051734;28;20033;-74
2021/08/08 07:07:27;;;;;;;2.83;1.27;;;;;;;20.35;nan;100111.25;5050675;28;20433;-75
2021/08/08 07:09:53;;;;;;;3.17;0.95;;;;;;;20.65;nan;100115.00;5050894;28;20033;-75
2021/08/08 07:12:18;;;;;;;3.35;1.00;;;;;;;20.78;nan;100123.72;5051619;28;20035;-75
2021/08/08 07:14:43;;;;;;;2.30;0.85;;;;;;;20.83;nan;100128.38;5068252;28;20553;-75
2021/08/08 07:17:09;;;;;;;2.75;1.10;;;;;;;20.53;nan;100128.38;5056976;28;20048;-75
2021/08/08 07:19:34;;;;;;;3.40;1.10;;;;;;;20.51;nan;100128.56;5051144;28;20029;-75
2021/08/08 07:21:59;;;;;;;3.00;0.95;;;;;;;20.82;nan;100124.06;5051179;28;20115;-75
2021/08/08 07:24:25;;;;;;;2.97;1.08;;;;;;;21.62;nan;100128.19;5048866;28;20033;-75
2021/08/08 07:26:50;;;;;;;3.47;1.20;;;;;;;22.21;nan;100126.25;5050205;28;20041;-75
2021/08/08 07:29:15;;;;;;;4.00;0.90;;;;;;;22.55;nan;100139.84;5050716;28;20465;-75
2021/08/08 07:31:40;;;;;;;1.98;0.98;;;;;;;22.88;nan;100132.88;5050596;28;20035;-75
2021/08/08 07:34:06;;;;;;;2.55;0.73;;;;;;;23.32;nan;100131.25;5065103;28;20452;-75
2021/08/08 07:36:31;;;;;;;2.85;1.08;;;;;;;23.56;nan;100130.25;5050820;28;20090;-75
2021/08/08 07:38:57;;;;;;;3.25;1.00;;;;;;;23.99;nan;100126.03;5050817;28;20048;-75
2021/08/08 07:41:22;;;;;;;3.50;0.90;;;;;;;24.26;nan;100126.06;5050453;28;20391;-75
2021/08/08 07:43:47;;;;;;;5.03;1.13;;;;;;;24.45;nan;100124.66;5050483;28;20115;-75
2021/08/08 07:46:13;;;;;;;2.13;0.90;;;;;;;24.05;nan;100130.41;5050338;28;20063;-75
2021/08/08 07:48:38;;;;;;;3.15;0.88;;;;;;;23.98;nan;100127.91;5064104;28;20035;-75
2021/08/08 07:51:03;;;;;;;2.35;0.90;;;;;;;23.98;nan;100133.31;5063479;28;20029;-76
2021/08/08 07:53:29;;;;;;;2.53;0.90;;;;;;;23.46;nan;100144.41;5050355;28;20468;-75
2021/08/08 07:55:55;;;;;;;3.17;1.20;;;;;;;22.94;nan;100142.72;5049228;28;20583;-74
2021/08/08 07:58:21;;;;;;;3.13;1.33;;;;;;;23.11;nan;100137.38;5049445;28;20533;-76
2021/08/08 08:00:47;;;;;;;1.88;0.85;;;;;;;23.78;nan;100139.25;5049964;28;20060;-76
2021/08/08 08:03:12;;;;;;;2.17;0.70;;;;;;;24.47;nan;100148.78;5050338;28;20510;-75
2021/08/08 08:05:38;;;;;;;2.78;0.90;;;;;;;24.70;nan;100140.41;5049933;28;20040;-76
2021/08/08 08:08:04;;;;;;;5.25;1.10;;;;;;;25.20;nan;100152.78;5043083;28;20119;-75
2021/08/08 08:10:31;;;;;;;4.07;1.20;;;;;;;24.97;nan;100151.19;5050119;28;20091;-75
2021/08/08 08:12:57;;;;;;;1.80;0.73;;;;;;;24.66;nan;100158.19;5050409;28;20033;-75
2021/08/08 08:15:22;;;;;;;3.67;1.00;;;;;;;24.41;nan;100147.06;5052200;28;20036;-76
2021/08/08 08:17:50;;;;;;;2.50;0.90;;;;;;;23.47;nan;100154.13;5049546;28;20182;-76
2021/08/08 08:20:15;;;;;;;1.95;1.00;;;;;;;23.24;nan;100142.47;5049455;28;20044;-76
2021/08/08 08:22:42;;;;;;;2.90;1.10;;;;;;;22.44;nan;100144.22;5049685;28;20029;-75
2021/08/08 08:25:08;;;;;;;3.58;1.48;;;;;;;22.38;nan;100141.66;5049738;28;20366;-75
2021/08/08 08:27:33;;;;;;;2.40;1.13;;;;;;;22.79;nan;100155.94;5050078;28;20033;-74
2021/08/08 08:29:58;;;;;;;4.93;1.50;;;;;;;23.54;nan;100152.09;5049816;28;20037;-76
2021/08/08 08:32:24;;;;;;;2.10;0.90;;;;;;;23.90;nan;100164.25;5050113;28;20421;-76
2021/08/08 08:34:49;;;;;;;3.33;1.20;;;;;;;23.67;nan;100159.84;5068293;28;20545;-75
2021/08/08 08:37:14;;;;;;;2.83;1.10;;;;;;;23.46;nan;100156.03;5054168;28;20115;-75
2021/08/08 08:39:40;;;;;;;3.83;1.23;;;;;;;22.75;nan;100152.06;5049324;28;20083;-75
2021/08/08 08:42:07;;;;;;;5.30;1.40;;;;;;;22.30;nan;100160.91;5049703;28;20506;-75
2021/08/08 08:44:34;;;;;;;2.85;1.10;;;;;;;22.18;nan;100148.22;5049859;28;20045;-75
2021/08/08 08:47:01;;;;;;;3.15;1.08;;;;;;;22.41;nan;100154.66;5049748;28;20041;-74
2021/08/08 08:49:28;;;;;;;4.07;1.10;;;;;;;22.29;nan;100159.28;5033434;28;20032;-75
2021/08/08 08:51:59;;;;;;;5.28;1.30;;;;;;;22.03;nan;100161.38;5050632;28;20143;-76
2021/08/08 08:54:25;;;;;;;3.78;1.17;;;;;;;22.63;nan;100166.41;5051152;28;20051;-75
2021/08/08 08:56:51;;;;;;;4.20;1.35;;;;;;;22.75;nan;100169.06;5050309;28;20041;-75
2021/08/08 08:59:17;;;;;;;4.15;1.17;;;;;;;23.04;nan;100180.66;5031857;28;20112;-75
2021/08/08 09:01:43;;;;;;;4.38;1.13;;;;;;;22.82;nan;100185.09;5048958;28;20460;-75
2021/08/08 09:04:08;;;;;;;3.55;1.30;;;;;;;22.50;nan;100180.19;5048593;28;20071;-75
2021/08/08 09:06:33;;;;;;;2.97;1.05;;;;;;;22.26;nan;100182.09;5049656;28;20033;-75
2021/08/08 09:08:59;;;;;;;4.57;1.10;;;;;;;22.68;nan;100174.59;5053940;28;20029;-75
2021/08/08 09:11:24;;;;;;;2.00;0.88;;;;;;;23.14;nan;100176.53;5048798;28;20080;-75
2021/08/08 09:13:55;;;;;;;3.78;1.10;;;;;;;23.52;nan;100183.91;5057718;28;20044;-76
2021/08/08 09:16:22;;;;;;;2.55;1.02;;;;;;;23.57;nan;100180.47;5050079;28;20033;-76
2021/08/08 09:18:52;;;;;;;3.55;1.17;;;;;;;23.84;nan;100184.16;5049230;28;20076;-75
2021/08/08 09:21:19;;;;;;;2.92;0.90;;;;;;;24.07;nan;100179.59;5048250;28;20025;-75
2021/08/08 09:23:44;;;;;;;4.63;1.23;;;;;;;23.39;nan;100190.44;5049292;28;20509;-75
2021/08/08 09:26:09;;;;;;;3.60;1.23;;;;;;;23.35;nan;100197.38;5048681;28;20076;-75
2021/08/08 09:28:35;;;;;;;2.92;1.13;;;;;;;22.86;nan;100189.78;5048932;28;20292;-75
2021/08/08 09:31:01;;;;;;;2.90;1.10;;;;;;;22.79;nan;100196.38;5049806;28;20036;-75
2021/08/08 09:33:27;;;;;;;2.67;1.00;;;;;;;22.76;nan;100203.03;5058755;28;20032;-75
2021/08/08 09:35:54;;;;;;;3.00;1.20;;;;;;;22.61;nan;100190.09;5062957;28;20497;-75
2021/08/08 09:38:23;;;;;;;4.00;1.15;;;;;;;22.85;nan;100192.69;5048353;28;20025;-75
2021/08/08 09:41:00;;;;;;;3.38;1.10;;;;;;;22.57;nan;100205.13;5041657;28;20327;-75
2021/08/08 09:43:27;;;;;;;2.67;1.00;;;;;;;22.49;nan;100189.31;5037065;28;20513;-75
2021/08/08 09:45:52;;;;;;;4.15;1.08;;;;;;;22.48;nan;100198.47;5028250;28;20041;-76
2021/08/08 09:48:18;;;;;;;3.95;1.35;;;;;;;22.59;nan;100194.06;5055868;28;20636;-75
2021/08/08 09:50:44;;;;;;;2.70;1.10;;;;;;;22.24;nan;100195.81;5061627;28;20082;-75
2021/08/08 09:53:16;;;;;;;4.30;1.40;;;;;;;22.24;nan;100201.19;5053119;28;20175;-75
2021/08/08 09:55:41;;;;;;;2.45;1.00;;;;;;;22.15;nan;100201.78;5053056;28;20167;-74
2021/08/08 09:58:22;;;;;;;3.95;1.30;;;;;;;21.84;nan;100211.84;5047034;28;20135;-76
2021/08/08 10:00:49;;;;;;;3.40;1.17;;;;;;;21.47;nan;100203.97;5053113;28;20052;-75
2021/08/08 10:03:15;;;;;;;3.85;1.20;;;;;;;20.97;nan;100206.94;5052454;28;20037;-75
2021/08/08 10:05:43;;;;;;;3.58;1.30;;;;;;;20.70;nan;100211.88;5047053;28;20029;-75
2021/08/08 10:08:11;;;;;;;4.45;1.30;;;;;;;20.83;nan;100203.63;5058896;28;20120;-75
2021/08/08 10:10:39;;;;;;;7.60;1.60;;;;;;;20.93;nan;100197.72;5052065;28;20112;-75
2021/08/08 10:13:07;;;;;;;3.15;1.30;;;;;;;21.22;nan;100201.44;5054775;28;20156;-75
2021/08/08 10:15:37;;;;;;;2.97;1.15;;;;;;;21.73;nan;100199.19;5062180;28;20048;-75
2021/08/08 10:18:04;;;;;;;3.30;1.52;;;;;;;21.95;nan;100199.44;5045176;28;20466;-75
2021/08/08 10:20:31;;;;;;;4.03;1.30;;;;;;;22.56;nan;100195.38;5050951;28;20044;-75
2021/08/08 10:22:57;;;;;;;3.53;1.38;;;;;;;22.67;nan;100201.81;5055627;28;20037;-75
2021/08/08 10:25:23;;;;;;;3.30;1.35;;;;;;;22.64;nan;100203.09;5050984;28;20036;-75
2021/08/08 10:27:49;;;;;;;3.10;1.10;;;;;;;22.50;nan;100199.03;5048730;28;20032;-75
2021/08/08 10:30:15;;;;;;;4.70;1.30;;;;;;;22.36;nan;100208.44;5050635;28;20033;-75
2021/08/08 10:32:40;;;;;;;4.85;1.33;;;;;;;22.36;nan;100205.75;5054975;28;20040;-75
2021/08/08 10:35:14;;;;;;;5.78;1.25;;;;;;;22.36;nan;100194.97;5052440;28;20398;-75
2021/08/08 10:37:40;;;;;;;3.38;1.00;;;;;;;;;;5052162;28;20033;-75
2021/08/08 10:40:06;;;;;;;4.93;1.40;;;;;;;22.48;nan;100203.84;5049781;28;20505;-75
2021/08/08 10:42:43;;;;;;;2.10;1.10;;;;;;;22.18;nan;100195.91;5058660;28;20447;-75
2021/08/08 10:45:19;;;;;;;5.50;1.38;;;;;;;22.38;nan;100190.16;5054833;28;20060;-75
2021/08/08 10:47:55;;;;;;;3.83;1.20;;;;;;;22.66;nan;100183.97;5051694;28;20083;-75
2021/08/08 10:50:22;;;;;;;3.45;1.30;;;;;;;23.07;nan;100182.06;5048807;28;20061;-75
2021/08/08 10:52:47;;;;;;;3.28;1.10;;;;;;;23.42;nan;100195.34;5058172;28;20043;-75
2021/08/08 10:55:26;;;;;;;2.65;1.08;;;;;;;23.43;nan;100196.16;5058318;28;20037;-75
2021/08/08 10:57:52;;;;;;;3.83;1.30;;;;;;;22.90;nan;100187.38;5051392;28;20033;-75
2021/08/08 11:00:18;;;;;;;4.38;1.45;;;;;;;22.87;nan;100187.88;5044660;28;20029;-75
2021/08/08 11:02:47;;;;;;;3.60;1.10;;;;;;;22.89;nan;100188.47;5051637;28;20025;-75
2021/08/08 11:05:13;;;;;;;4.20;1.52;;;;;;;23.32;nan;100196.00;5051582;28;20460;-74
2021/08/08 11:07:39;;;;;;;3.22;1.20;;;;;;;23.63;nan;100195.69;5053971;28;20055;-75
2021/08/08 11:10:05;;;;;;;2.28;1.10;;;;;;;23.44;nan;100187.81;5051665;28;20398;-75
2021/08/08 11:12:36;;;;;;;3.05;1.60;;;;;;;23.32;nan;100203.28;5050733;28;20033;-75
2021/08/08 11:15:01;;;;;;;;;;;;;;;23.10;nan;100200.47;5053399;28;20033;-75
2021/08/08 11:17:27;;;;;;;2.88;1.17;;;;;;;23.03;nan;100191.72;5050946;28;19913;-75
2021/08/08 11:19:54;;;;;;;3.40;1.30;;;;;;;22.76;nan;100202.22;5051097;28;20033;-75
2021/08/08 11:22:21;;;;;;;4.60;2.15;;;;;;;22.92;nan;100189.84;5049722;28;20041;-76
2021/08/08 11:24:55;;;;;;;3.53;1.80;;;;;;;22.75;nan;100196.00;5050925;28;20036;-75
2021/08/08 11:27:35;;;;;;;4.47;1.83;;;;;;;22.89;nan;100193.84;5043926;28;20087;-75
2021/08/08 11:30:03;;;;;;;2.78;1.30;;;;;;;22.99;nan;100185.97;5046223;28;20052;-75
2021/08/08 11:32:30;;;;;;;2.60;1.15;;;;;;;22.90;nan;100195.47;5051646;28;20032;-75
2021/08/08 11:35:08;;;;;;;2.50;1.10;;;;;;;22.96;nan;100194.53;5055114;28;20037;-75
2021/08/08 11:37:38;;;;;;;4.00;1.20;;;;;;;23.05;nan;100195.81;5050391;28;20025;-75
2021/08/08 11:40:28;;;;;;;4.68;1.83;;;;;;;23.00;nan;100192.19;5047940;28;20065;-76
2021/08/08 11:42:59;;;;;;;4.63;1.60;;;;;;;23.09;nan;100191.53;5048788;28;20139;-75
2021/08/08 11:45:38;;;;;;;6.57;1.80;;;;;;;23.11;nan;100197.50;5041583;28;20072;-75